Time;durP1;ratioP1;P1;durP2;ratioP2;P2;SDS_P1;SDS_P2;PMS_P1;PMS_P2;Temp;Humidity;BMP_temperature;BMP_pressure;BME280_temperature;BME280_humidity;BME280_pressure;Samples;Min_cycle;Max_cycle;Signal;HPM_P1;HPM_P2
2022/09/11 00:01:02;;;;;;;40.92;28.38;;;14.10;99.90;;;;;;5091483;28;20420;-69
2022/09/11 00:03:30;;;;;;;38.97;27.65;;;;;;;;;;5111418;28;20740;-68
2022/09/11 00:06:00;;;;;;;37.75;26.60;;;14.20;99.90;;;;;;5117861;28;20414;-68
2022/09/11 00:08:26;;;;;;;43.83;29.17;;;;;;;;;;5100214;28;20419;-68
2022/09/11 00:10:52;;;;;;;38.08;27.35;;;;;;;;;;5124567;28;20434;-69
2022/09/11 00:13:21;;;;;;;40.20;27.80;;;14.30;99.90;;;;;;5076351;28;20405;-68
2022/09/11 00:15:48;;;;;;;39.75;27.35;;;;;;;;;;5082973;28;20962;-68
2022/09/11 00:18:16;;;;;;;39.63;26.80;;;;;;;;;;5095895;28;20503;-68
2022/09/11 00:20:49;;;;;;;40.40;26.95;;;;;;;;;;5099409;27;20564;-68
2022/09/11 00:23:18;;;;;;;41.05;27.05;;;14.10;99.90;;;;;;5110027;27;20431;-71
2022/09/11 00:25:45;;;;;;;40.03;27.95;;;;;;;;;;5093883;28;20417;-71
2022/09/11 00:28:16;;;;;;;36.53;25.60;;;14.00;99.90;;;;;;5096661;28;20465;-72
2022/09/11 00:30:46;;;;;;;37.33;25.98;;;14.00;99.90;;;;;;5100404;27;20823;-72
2022/09/11 00:33:13;;;;;;;42.65;27.83;;;;;;;;;;5114358;27;20402;-72
2022/09/11 00:35:39;;;;;;;40.22;27.13;;;;;;;;;;5110698;27;20418;-72
2022/09/11 00:38:07;;;;;;;40.95;27.92;;;;;;;;;;5092156;27;20414;-72
2022/09/11 00:40:43;;;;;;;40.22;27.52;;;13.80;99.90;;;;;;5087795;27;20453;-72
2022/09/11 00:43:09;;;;;;;40.63;27.42;;;;;;;;;;5135420;27;20418;-72
2022/09/11 00:45:36;;;;;;;40.38;28.08;;;;;;;;;;5107695;28;20911;-72
2022/09/11 00:48:03;;;;;;;43.55;28.98;;;;;;;;;;5112909;28;20510;-73
2022/09/11 00:50:30;;;;;;;45.07;30.37;;;;;;;;;;5101329;27;20427;-72
2022/09/11 00:52:58;;;;;;;48.58;30.00;;;;;;;;;;5128963;27;20724;-72
2022/09/11 00:55:26;;;;;;;46.40;28.92;;;;;;;;;;5105925;27;20424;-72
2022/09/11 00:57:55;;;;;;;45.80;29.27;;;;;;;;;;5095454;28;20427;-72
2022/09/11 01:00:21;;;;;;;43.83;29.45;;;;;;;;;;5078683;28;20418;-72
2022/09/11 01:02:49;;;;;;;47.70;30.25;;;;;;;;;;5113139;27;20487;-72
2022/09/11 01:05:15;;;;;;;47.97;29.27;;;;;;;;;;5110964;27;20940;-72
2022/09/11 01:07:41;;;;;;;42.38;27.95;;;;;;;;;;5100808;27;20415;-72
2022/09/11 01:10:09;;;;;;;42.75;27.83;;;;;;;;;;5101943;28;20466;-72
2022/09/11 01:13:05;;;;;;;40.58;27.30;;;13.90;99.90;;;;;;5108590;27;20414;-72
2022/09/11 01:15:34;;;;;;;42.67;27.63;;;;;;;;;;5076781;27;20415;-72
2022/09/11 01:18:05;;;;;;;38.63;27.17;;;14.00;99.90;;;;;;5103302;28;20507;-72
2022/09/11 01:20:51;;;;;;;40.67;25.88;;;;;;;;;;5094228;27;20423;-72
2022/09/11 01:23:25;;;;;;;39.50;27.05;;;14.00;99.90;;;;;;5127354;27;20428;-72
2022/09/11 01:26:09;;;;;;;45.58;28.40;;;13.90;99.90;;;;;;5078946;27;20497;-73
2022/09/11 01:29:08;;;;;;;37.38;26.23;;;14.00;99.90;;;;;;5104952;28;20424;-72
2022/09/11 01:31:39;;;;;;;37.35;25.75;;;;;;;;;;5097982;27;20426;-72
2022/09/11 01:34:11;;;;;;;37.28;25.35;;;;;;;;;;5109246;27;20399;-72
2022/09/11 01:36:46;;;;;;;39.75;26.98;;;;;;;;;;5104721;27;20430;-71
2022/09/11 01:39:13;;;;;;;46.53;28.67;;;;;;;;;;5089609;28;20413;-71
2022/09/11 01:41:51;;;;;;;44.75;27.08;;;;;;;;;;5097156;27;20421;-71
2022/09/11 01:44:23;;;;;;;39.88;26.48;;;13.80;99.90;;;;;;5106369;27;20505;-71
2022/09/11 01:46:51;;;;;;;37.80;26.67;;;;;;;;;;5121138;27;20425;-71
2022/09/11 01:49:34;;;;;;;35.38;25.48;;;;;;;;;;5114795;27;20410;-71
2022/09/11 01:52:02;;;;;;;35.65;25.45;;;;;;;;;;5107055;27;20495;-71
2022/09/11 01:54:41;;;;;;;39.50;27.23;;;;;;;;;;5094870;28;20838;-71
2022/09/11 01:57:17;;;;;;;36.45;25.73;;;13.90;99.90;;;;;;5100234;27;20414;-71
2022/09/11 01:59:48;;;;;;;38.30;27.08;;;13.60;99.90;;;;;;5109812;27;20762;-71
2022/09/11 02:02:18;;;;;;;34.75;25.50;;;;;;;;;;5106107;27;20930;-71
2022/09/11 02:04:48;;;;;;;36.38;25.35;;;;;;;;;;5102961;28;20900;-72
2022/09/11 02:07:19;;;;;;;36.80;25.67;;;13.70;99.90;;;;;;5117040;27;20406;-71
2022/09/11 02:09:54;;;;;;;35.47;25.00;;;;;;;;;;5113123;28;20392;-71
2022/09/11 02:12:26;;;;;;;37.23;25.97;;;13.60;99.90;;;;;;5096007;27;20514;-72
2022/09/11 02:14:53;;;;;;;35.72;25.05;;;13.60;99.90;;;;;;5113521;28;20611;-72
2022/09/11 02:17:25;;;;;;;34.60;24.55;;;;;;;;;;5099308;27;20418;-71
2022/09/11 02:19:56;;;;;;;34.58;24.20;;;;;;;;;;5112516;27;20480;-72
2022/09/11 02:22:23;;;;;;;32.97;24.35;;;;;;;;;;5094075;28;20420;-72
2022/09/11 02:24:49;;;;;;;33.38;24.48;;;;;;;;;;5105906;27;20774;-72
2022/09/11 02:27:23;;;;;;;35.40;25.42;;;13.70;99.90;;;;;;5098028;27;20422;-72
2022/09/11 02:29:49;;;;;;;35.60;25.52;;;;;;;;;;5115179;27;20485;-71
2022/09/11 02:32:17;;;;;;;36.33;25.05;;;13.50;99.90;;;;;;5099921;27;20418;-72
2022/09/11 02:34:45;;;;;;;33.72;23.77;;;13.50;99.90;;;;;;5131876;27;20383;-73
2022/09/11 02:37:56;;;;;;;31.33;23.42;;;13.40;99.90;;;;;;5097701;27;20912;-72
2022/09/11 02:40:22;;;;;;;32.20;22.00;;;;;;;;;;5074632;27;20449;-71
2022/09/11 02:42:58;;;;;;;34.85;24.20;;;;;;;;;;5103079;28;20529;-71
2022/09/11 02:45:48;;;;;;;32.30;23.50;;;13.30;99.90;;;;;;5108335;27;20407;-71
2022/09/11 02:48:39;;;;;;;28.75;21.70;;;13.50;99.90;;;;;;5102696;27;20414;-71
2022/09/11 02:51:17;;;;;;;29.08;20.80;;;13.50;99.90;;;;;;5097160;27;20424;-72
2022/09/11 02:53:49;;;;;;;30.27;20.60;;;;;;;;;;5096231;27;20498;-72
2022/09/11 02:56:43;;;;;;;24.52;19.35;;;13.50;99.90;;;;;;5114906;27;20403;-71
2022/09/11 02:59:16;;;;;;;24.23;18.98;;;13.20;99.90;;;;;;5094994;28;20503;-72
2022/09/11 03:01:46;;;;;;;25.42;19.85;;;;;;;;;;5108070;27;20909;-72
2022/09/11 03:04:13;;;;;;;22.37;18.43;;;13.20;99.90;;;;;;5125266;27;20411;-72
2022/09/11 03:06:41;;;;;;;20.60;17.20;;;;;;;;;;5108336;27;20429;-73
2022/09/11 03:09:08;;;;;;;21.38;16.80;;;;;;;;;;5102999;27;20442;-72
2022/09/11 03:11:34;;;;;;;19.23;16.38;;;13.40;99.90;;;;;;5107490;27;20414;-72
2022/09/11 03:14:00;;;;;;;20.50;16.60;;;;;;;;;;5105964;27;20415;-72
2022/09/11 03:16:26;;;;;;;22.90;17.33;;;;;;;;;;5095826;27;20921;-72
2022/09/11 03:18:53;;;;;;;43.05;18.23;;;;;;;;;;5111325;27;20414;-71
2022/09/11 03:21:19;;;;;;;28.00;18.85;;;13.30;99.90;;;;;;5109583;27;20473;-72
2022/09/11 03:23:44;;;;;;;32.83;20.17;;;13.00;99.90;;;;;;5096730;28;20509;-72
2022/09/11 03:26:10;;;;;;;34.17;20.33;;;;;;;;;;5118110;27;20835;-72
2022/09/11 03:28:36;;;;;;;30.35;19.85;;;;;;;;;;5091424;28;20495;-71
2022/09/11 03:31:03;;;;;;;32.17;19.63;;;13.10;99.90;;;;;;5101530;27;20483;-72
2022/09/11 03:33:29;;;;;;;30.40;19.08;;;;;;;;;;5077022;28;20426;-72
2022/09/11 03:35:56;;;;;;;27.17;18.57;;;;;;;;;;5073694;28;20417;-72
2022/09/11 03:38:22;;;;;;;25.60;18.00;;;;;;;;;;5099009;27;20422;-72
2022/09/11 03:40:47;;;;;;;23.50;17.15;;;13.00;99.90;;;;;;5103558;27;20471;-72
2022/09/11 03:43:15;;;;;;;23.33;16.90;;;12.60;99.90;;;;;;5093785;27;21131;-71
2022/09/11 03:45:41;;;;;;;23.13;17.48;;;;;;;;;;5111031;28;20459;-72
2022/09/11 03:48:07;;;;;;;23.77;17.63;;;;;;;;;;5101625;28;20430;-72
2022/09/11 03:50:33;;;;;;;24.10;18.20;;;12.80;99.90;;;;;;5104479;28;20446;-72
2022/09/11 03:52:59;;;;;;;24.40;19.57;;;;;;;;;;5106113;28;20440;-72
2022/09/11 03:55:25;;;;;;;25.00;18.27;;;;;;;;;;5105962;28;20520;-72
2022/09/11 03:57:51;;;;;;;24.65;18.65;;;;;;;;;;5089769;28;20420;-72
2022/09/11 04:00:17;;;;;;;20.42;17.40;;;;;;;;;;5093576;28;20408;-72
2022/09/11 04:02:43;;;;;;;22.05;16.90;;;;;;;;;;5089010;28;20535;-72
2022/09/11 04:05:09;;;;;;;25.35;19.58;;;;;;;;;;5113664;28;20495;-72
2022/09/11 04:07:35;;;;;;;23.50;19.08;;;;;;;;;;5104537;28;20558;-72
2022/09/11 04:10:01;;;;;;;24.30;19.30;;;;;;;;;;5091324;28;20426;-72
2022/09/11 04:12:27;;;;;;;21.80;18.00;;;;;;;;;;5104693;28;20432;-72
2022/09/11 04:14:53;;;;;;;23.27;18.52;;;12.80;99.90;;;;;;5114065;28;20459;-71
2022/09/11 04:17:19;;;;;;;24.48;19.08;;;;;;;;;;5107301;28;20420;-72
2022/09/11 04:19:45;;;;;;;22.15;17.83;;;12.70;99.90;;;;;;5093187;28;20412;-71
2022/09/11 04:22:11;;;;;;;22.83;18.15;;;;;;;;;;5114305;28;20418;-72
2022/09/11 04:24:37;;;;;;;22.52;16.77;;;;;;;;;;5092173;28;20411;-72
2022/09/11 04:27:03;;;;;;;23.95;18.02;;;12.90;99.90;;;;;;5104523;28;20422;-72
2022/09/11 04:29:31;;;;;;;23.25;18.13;;;12.90;99.90;;;;;;5090651;28;20473;-72
2022/09/11 04:31:57;;;;;;;24.48;19.00;;;12.70;99.90;;;;;;5093255;28;20457;-72
2022/09/11 04:34:22;;;;;;;23.80;18.95;;;12.90;99.90;;;;;;5092038;28;20428;-72
2022/09/11 04:36:48;;;;;;;35.30;21.30;;;;;;;;;;5109572;28;20461;-72
2022/09/11 04:39:14;;;;;;;24.38;19.30;;;;;;;;;;5108993;28;20429;-72
2022/09/11 04:41:40;;;;;;;24.70;19.58;;;;;;;;;;5113603;28;20418;-72
2022/09/11 04:44:06;;;;;;;22.85;18.35;;;;;;;;;;5106708;28;20467;-72
2022/09/11 04:46:33;;;;;;;26.47;18.80;;;12.80;99.90;;;;;;5113387;28;20473;-72
2022/09/11 04:48:58;;;;;;;22.10;17.38;;;12.70;99.90;;;;;;5094534;28;20422;-72
2022/09/11 04:51:26;;;;;;;22.52;18.05;;;;;;;;;;5108715;28;20418;-71
2022/09/11 04:53:56;;;;;;;22.50;18.48;;;;;;;;;;5098613;28;20745;-72
2022/09/11 04:56:23;;;;;;;23.33;18.30;;;;;;;;;;5092924;28;20400;-72
2022/09/11 04:59:01;;;;;;;27.80;20.30;;;12.50;99.90;;;;;;5117672;27;20421;-72
2022/09/11 05:01:28;;;;;;;27.70;20.63;;;;;;;;;;5116731;27;20387;-72
2022/09/11 05:03:55;;;;;;;29.08;20.40;;;;;;;;;;5092497;28;20455;-72
2022/09/11 05:06:21;;;;;;;24.00;19.02;;;;;;;;;;5097613;27;20945;-72
2022/09/11 05:08:48;;;;;;;24.55;18.02;;;12.60;99.90;;;;;;5107436;27;20520;-72
2022/09/11 05:11:15;;;;;;;22.08;17.17;;;;;;;;;;5133112;27;20417;-72
2022/09/11 05:13:41;;;;;;;21.10;17.40;;;12.50;99.90;;;;;;5125339;27;20415;-72
2022/09/11 05:16:10;;;;;;;23.77;17.30;;;12.70;99.90;;;;;;5135150;27;20505;-72
2022/09/11 05:18:37;;;;;;;25.15;19.65;;;13.00;99.90;;;;;;5102851;27;20419;-72
2022/09/11 05:21:12;;;;;;;24.00;17.92;;;12.60;99.90;;;;;;5110871;27;20514;-72
2022/09/11 05:23:39;;;;;;;24.60;18.60;;;;;;;;;;5127142;27;20414;-72
2022/09/11 05:26:06;;;;;;;27.15;19.85;;;12.60;99.90;;;;;;5116420;27;20401;-72
2022/09/11 05:28:33;;;;;;;24.55;18.90;;;;;;;;;;5101908;27;20937;-72
2022/09/11 05:30:59;;;;;;;24.55;19.33;;;12.60;99.90;;;;;;5123789;27;20427;-72
2022/09/11 05:33:26;;;;;;;24.15;19.02;;;12.70;99.90;;;;;;5108694;27;20429;-72
2022/09/11 05:35:53;;;;;;;25.60;19.33;;;12.80;99.90;;;;;;5096664;27;20935;-72
2022/09/11 05:38:20;;;;;;;23.92;18.58;;;12.70;99.90;;;;;;5106523;27;20482;-72
2022/09/11 05:40:48;;;;;;;23.33;18.65;;;12.80;99.90;;;;;;5108200;28;20420;-72
2022/09/11 05:43:14;;;;;;;20.85;17.13;;;;;;;;;;5097867;27;20913;-72
2022/09/11 05:45:44;;;;;;;22.75;17.27;;;13.00;99.90;;;;;;5114157;27;20763;-72
2022/09/11 05:48:11;;;;;;;20.05;16.27;;;12.60;99.90;;;;;;5104106;27;20526;-72
2022/09/11 05:50:37;;;;;;;21.05;17.17;;;;;;;;;;5116079;27;20395;-72
2022/09/11 05:53:04;;;;;;;21.30;17.40;;;;;;;;;;5105961;28;20421;-72
2022/09/11 05:55:34;;;;;;;21.80;17.40;;;13.10;99.90;;;;;;5108019;28;20501;-72
2022/09/11 05:58:00;;;;;;;19.80;16.80;;;13.40;99.90;;;;;;5086255;28;20420;-72
2022/09/11 06:00:26;;;;;;;23.58;17.20;;;13.50;99.90;;;;;;5097562;28;20557;-72
2022/09/11 06:02:53;;;;;;;22.80;17.27;;;;;;;;;;5083792;28;20500;-73
2022/09/11 06:05:19;;;;;;;22.77;17.27;;;13.90;99.90;;;;;;5095363;28;21060;-73
2022/09/11 06:07:45;;;;;;;19.15;15.63;;;13.70;99.90;;;;;;5097324;28;20423;-72
2022/09/11 06:10:12;;;;;;;20.60;17.30;;;;;;;;;;5078362;28;20421;-72
2022/09/11 06:12:38;;;;;;;22.85;18.10;;;;;;;;;;5095790;27;20433;-73
2022/09/11 06:15:04;;;;;;;22.85;17.63;;;;;;;;;;5113188;27;20415;-73
2022/09/11 06:17:30;;;;;;;23.02;18.30;;;14.00;99.90;;;;;;5108541;27;20410;-72
2022/09/11 06:19:56;;;;;;;22.42;18.38;;;;;;;;;;5074137;28;20455;-71
2022/09/11 06:22:22;;;;;;;24.10;19.08;;;14.20;99.90;;;;;;5125558;27;20428;-72
2022/09/11 06:24:48;;;;;;;23.27;18.30;;;14.30;99.90;;;;;;5100117;27;20909;-72
2022/09/11 06:27:17;;;;;;;20.52;17.75;;;;;;;;;;5098151;27;21268;-72
2022/09/11 06:29:43;;;;;;;23.37;18.67;;;;;;;;;;5091267;27;20475;-72
2022/09/11 06:32:09;;;;;;;23.35;17.60;;;;;;;;;;5104097;27;20827;-72
2022/09/11 06:34:36;;;;;;;20.55;17.95;;;;;;;;;;5099489;28;20412;-72
2022/09/11 06:37:02;;;;;;;19.20;17.10;;;;;;;;;;5094258;28;20441;-72
2022/09/11 06:39:28;;;;;;;19.45;17.20;;;14.70;99.90;;;;;;5092025;27;20757;-72
2022/09/11 06:41:54;;;;;;;22.73;18.60;;;;;;;;;;5133303;27;20417;-72
2022/09/11 06:44:21;;;;;;;20.98;17.63;;;14.80;99.90;;;;;;5078780;28;20432;-72
2022/09/11 06:46:47;;;;;;;21.67;18.02;;;;;;;;;;5076957;28;20989;-72
2022/09/11 06:49:13;;;;;;;21.48;17.55;;;14.90;99.90;;;;;;5090503;28;20923;-72
2022/09/11 06:51:39;;;;;;;21.88;17.83;;;15.20;99.90;;;;;;5074706;28;20518;-72
2022/09/11 06:54:05;;;;;;;22.60;17.23;;;15.20;99.90;;;;;;5106014;27;20846;-72
2022/09/11 06:56:31;;;;;;;20.27;17.33;;;;;;;;;;5096950;28;20420;-72
2022/09/11 06:58:57;;;;;;;19.05;16.63;;;;;;;;;;5066812;28;20417;-72
2022/09/11 07:01:24;;;;;;;19.85;16.20;;;15.70;99.90;;;;;;5092201;28;20408;-72
2022/09/11 07:03:53;;;;;;;20.88;16.45;;;15.70;99.90;;;;;;5103038;27;20415;-72
2022/09/11 07:06:24;;;;;;;17.98;16.08;;;16.10;99.90;;;;;;5112317;27;20414;-72
2022/09/11 07:08:51;;;;;;;19.80;16.40;;;;;;;;;;5093423;28;20488;-73
2022/09/11 07:11:18;;;;;;;18.48;15.30;;;16.20;99.90;;;;;;5065266;28;20422;-73
2022/09/11 07:13:44;;;;;;;17.48;15.35;;;16.40;99.90;;;;;;5123281;27;20840;-72
2022/09/11 07:16:12;;;;;;;17.60;14.95;;;;;;;;;;5073716;28;20425;-72
2022/09/11 07:18:41;;;;;;;25.50;15.43;;;;;;;;;;5100998;27;20501;-72
2022/09/11 07:21:20;;;;;;;19.17;15.15;;;17.00;99.90;;;;;;5092251;28;20764;-72
2022/09/11 07:23:47;;;;;;;17.35;15.13;;;;;;;;;;5101246;27;20429;-72
2022/09/11 07:26:13;;;;;;;16.88;14.93;;;;;;;;;;5111528;27;20483;-72
2022/09/11 07:28:39;;;;;;;17.38;15.13;;;17.50;99.90;;;;;;5103523;27;20931;-72
2022/09/11 07:31:10;;;;;;;17.63;15.07;;;;;;;;;;5093795;28;20421;-73
2022/09/11 07:33:41;;;;;;;17.80;13.90;;;;;;;;;;5075157;28;20772;-72
2022/09/11 07:36:29;;;;;;;18.38;14.23;;;17.90;99.90;;;;;;5102823;28;20501;-72
2022/09/11 07:38:55;;;;;;;16.23;14.40;;;;;;;;;;5098880;27;20505;-72
2022/09/11 07:41:22;;;;;;;17.20;13.75;;;17.90;99.90;;;;;;5107935;27;20471;-72
2022/09/11 07:43:56;;;;;;;16.00;13.57;;;17.80;99.90;;;;;;5110119;28;20399;-72
2022/09/11 07:46:23;;;;;;;16.02;13.07;;;18.00;99.90;;;;;;5077910;28;20411;-72
2022/09/11 07:48:49;;;;;;;15.75;12.52;;;;;;;;;;5090468;28;20492;-72
2022/09/11 07:51:17;;;;;;;12.65;10.57;;;;;;;;;;5095839;28;20426;-73
2022/09/11 07:53:45;;;;;;;14.60;12.55;;;18.30;99.90;;;;;;5103029;28;20476;-72
2022/09/11 07:56:13;;;;;;;13.05;11.38;;;;;;;;;;5076110;28;20445;-72
2022/09/11 07:58:40;;;;;;;12.70;11.30;;;18.60;99.90;;;;;;5084456;28;21880;-73
2022/09/11 08:01:07;;;;;;;12.25;11.05;;;;;;;;;;5103572;28;20420;-72
2022/09/11 08:03:34;;;;;;;11.20;9.20;;;18.80;99.90;;;;;;5098948;28;20446;-72
2022/09/11 08:06:03;;;;;;;11.68;8.63;;;19.20;99.90;;;;;;5092442;28;20420;-72
2022/09/11 08:08:30;;;;;;;12.07;9.00;;;19.20;99.90;;;;;;5096741;28;21030;-72
2022/09/11 08:11:00;;;;;;;12.50;10.68;;;19.30;99.90;;;;;;5099531;28;20463;-72
2022/09/11 08:13:26;;;;;;;10.23;8.38;;;19.50;99.90;;;;;;5093290;28;20437;-72
2022/09/11 08:15:52;;;;;;;10.23;8.68;;;19.70;99.90;;;;;;5074036;28;20420;-72
2022/09/11 08:18:18;;;;;;;10.63;8.43;;;19.30;99.90;;;;;;5080426;28;20424;-73
2022/09/11 08:20:43;;;;;;;11.67;8.30;;;19.70;99.90;;;;;;5083567;28;20432;-72
2022/09/11 08:23:10;;;;;;;9.37;8.43;;;19.70;99.90;;;;;;5103304;28;20425;-72
2022/09/11 08:25:36;;;;;;;11.18;8.25;;;19.70;99.90;;;;;;5089752;28;20417;-73
2022/09/11 08:28:03;;;;;;;10.80;8.20;;;19.60;99.90;;;;;;5091541;28;21002;-73
2022/09/11 08:30:29;;;;;;;9.75;7.05;;;19.70;99.90;;;;;;5095375;28;20539;-73
2022/09/11 08:32:54;;;;;;;10.23;8.32;;;19.60;99.90;;;;;;5093933;28;20420;-73
2022/09/11 08:35:21;;;;;;;13.40;8.40;;;;;;;;;;5109036;28;20427;-72
2022/09/11 08:37:47;;;;;;;10.30;8.57;;;;;;;;;;5106893;28;20416;-72
2022/09/11 08:40:13;;;;;;;11.52;8.40;;;20.10;99.90;;;;;;5075639;28;20436;-73
2022/09/11 08:42:41;;;;;;;9.15;7.35;;;20.00;99.90;;;;;;5090107;28;20426;-72
2022/09/11 08:45:16;;;;;;;8.60;6.30;;;20.00;99.90;;;;;;5111372;28;20450;-72
2022/09/11 08:47:53;;;;;;;8.82;6.15;;;19.90;99.90;;;;;;5106154;28;20415;-73
2022/09/11 08:50:30;;;;;;;8.63;5.60;;;20.10;99.90;;;;;;5113759;28;20400;-73
2022/09/11 08:52:56;;;;;;;8.48;4.93;;;20.60;99.90;;;;;;5078725;28;20430;-73
2022/09/11 08:55:47;;;;;;;9.63;5.47;;;20.60;99.90;;;;;;5093724;28;20751;-72
2022/09/11 08:58:17;;;;;;;8.98;5.68;;;20.30;99.90;;;;;;5093428;28;20427;-72
2022/09/11 09:01:06;;;;;;;8.93;5.93;;;20.50;99.90;;;;;;5082297;28;20427;-72
2022/09/11 09:03:54;;;;;;;10.53;5.90;;;20.30;99.90;;;;;;5103508;28;21531;-72
2022/09/11 09:06:40;;;;;;;8.63;5.68;;;20.10;99.90;;;;;;5083807;28;20517;-72
2022/09/11 09:09:14;;;;;;;7.97;5.10;;;20.40;99.90;;;;;;5095870;28;20432;-72
2022/09/11 09:12:04;;;;;;;6.97;4.60;;;20.90;99.90;;;;;;5104458;28;20423;-72
2022/09/11 09:14:55;;;;;;;7.53;4.43;;;20.70;99.90;;;;;;5083971;28;20459;-76
2022/09/11 09:17:28;;;;;;;8.40;5.55;;;21.00;99.90;;;;;;5095410;28;20404;-76
2022/09/11 09:20:15;;;;;;;8.15;6.10;;;21.70;99.90;;;;;;5102111;28;20428;-76
2022/09/11 09:22:50;;;;;;;9.60;5.90;;;21.80;99.90;;;;;;5095425;28;20463;-76
2022/09/11 09:25:21;;;;;;;10.43;7.75;;;21.50;99.90;;;;;;5087747;28;20424;-76
2022/09/11 09:28:02;;;;;;;7.38;5.10;;;21.40;99.90;;;;;;5095841;28;20416;-76
2022/09/11 09:30:35;;;;;;;6.72;5.20;;;21.90;99.90;;;;;;5087115;28;20418;-76
2022/09/11 09:33:14;;;;;;;8.63;5.20;;;21.90;99.90;;;;;;5088806;28;20507;-77
2022/09/11 09:35:42;;;;;;;6.97;4.75;;;21.50;99.90;;;;;;5092970;28;20458;-76
2022/09/11 09:38:21;;;;;;;5.80;4.00;;;21.70;99.90;;;;;;5107344;28;20467;-77
2022/09/11 09:41:02;;;;;;;6.45;3.85;;;21.70;99.90;;;;;;5101736;28;20429;-77
2022/09/11 09:44:00;;;;;;;7.13;3.90;;;21.70;99.90;;;;;;5082018;28;20852;-77
2022/09/11 09:46:31;;;;;;;8.93;4.53;;;21.70;99.90;;;;;;5091112;28;20471;-76
2022/09/11 09:48:57;;;;;;;6.63;4.13;;;21.80;99.90;;;;;;5108146;28;20433;-76
2022/09/11 09:51:23;;;;;;;7.00;4.07;;;21.60;99.90;;;;;;5085488;28;20474;-76
2022/09/11 09:53:57;;;;;;;8.87;3.83;;;21.70;99.90;;;;;;5087294;28;20440;-76
2022/09/11 09:56:24;;;;;;;6.53;3.35;;;22.00;99.90;;;;;;5100726;28;20438;-77
2022/09/11 09:59:12;;;;;;;6.60;3.35;;;21.60;99.90;;;;;;5082782;28;20430;-77
2022/09/11 10:01:45;;;;;;;5.18;2.95;;;22.30;99.90;;;;;;5084874;28;20421;-76
2022/09/11 10:04:14;;;;;;;5.82;2.83;;;22.20;99.90;;;;;;5075433;28;20458;-76
2022/09/11 10:06:40;;;;;;;4.32;2.63;;;22.30;99.90;;;;;;5089542;28;20505;-76
2022/09/11 10:09:16;;;;;;;4.70;2.90;;;22.00;99.90;;;;;;5091857;28;20398;-76
2022/09/11 10:11:42;;;;;;;5.10;2.80;;;22.10;99.90;;;;;;5091296;28;20423;-76
2022/09/11 10:14:28;;;;;;;7.88;3.13;;;22.30;99.90;;;;;;5105985;28;20425;-77
2022/09/11 10:16:54;;;;;;;5.85;2.60;;;22.30;99.90;;;;;;5104533;28;20472;-76
2022/09/11 10:19:40;;;;;;;5.30;2.65;;;22.30;99.90;;;;;;5099555;28;20466;-77
2022/09/11 10:22:23;;;;;;;4.32;2.50;;;22.60;99.90;;;;;;5090302;28;20527;-77
2022/09/11 10:25:05;;;;;;;4.70;2.60;;;22.60;99.90;;;;;;5069219;28;20424;-76
2022/09/11 10:27:43;;;;;;;5.63;3.35;;;22.10;99.90;;;;;;5086360;28;20521;-77
2022/09/11 10:30:30;;;;;;;5.47;2.92;;;22.20;99.90;;;;;;5086379;28;20937;-76
2022/09/11 10:32:57;;;;;;;7.75;3.17;;;;;;;;;;5092400;28;20508;-76
2022/09/11 10:35:26;;;;;;;7.20;3.63;;;21.50;99.90;;;;;;5106289;28;20786;-76
2022/09/11 10:38:19;;;;;;;5.75;3.33;;;;;;;;;;5092587;28;20433;-76
2022/09/11 10:41:07;;;;;;;4.63;3.13;;;21.50;99.90;;;;;;5073741;28;20424;-76
2022/09/11 10:44:00;;;;;;;4.90;3.30;;;21.20;99.90;;;;;;5065576;28;20447;-72
2022/09/11 10:46:40;;;;;;;6.18;3.80;;;21.50;99.90;;;;;;5086624;28;20800;-72
2022/09/11 10:49:07;;;;;;;5.45;3.40;;;22.10;99.90;;;;;;5057014;28;20425;-72
2022/09/11 10:51:41;;;;;;;5.72;3.35;;;;;;;;;;5083595;28;20418;-72
2022/09/11 10:54:43;;;;;;;7.65;3.72;;;21.50;99.90;;;;;;5087964;28;20477;-72
2022/09/11 10:57:42;;;;;;;6.03;3.80;;;21.90;99.90;;;;;;5069397;28;20498;-73
2022/09/11 11:00:40;;;;;;;6.10;3.90;;;21.90;99.90;;;;;;5074155;28;20798;-73
2022/09/11 11:03:16;;;;;;;5.13;3.10;;;22.20;99.90;;;;;;5059893;28;20436;-73
2022/09/11 11:06:07;;;;;;;5.68;3.03;;;22.20;99.90;;;;;;5111083;28;20916;-73
2022/09/11 11:09:10;;;;;;;6.90;3.00;;;22.90;99.90;;;;;;5111178;28;20404;-73
2022/09/11 11:11:46;;;;;;;3.83;2.60;;;23.10;99.90;;;;;;5108496;28;20416;-73
2022/09/11 11:14:20;;;;;;;5.07;2.78;;;23.40;99.90;;;;;;5071291;28;20428;-73
2022/09/11 11:16:54;;;;;;;5.85;2.97;;;23.30;99.90;;;;;;5070541;28;20413;-73
2022/09/11 11:19:34;;;;;;;6.65;2.90;;;23.40;99.90;;;;;;5068113;28;20884;-73
2022/09/11 11:22:19;;;;;;;6.38;2.72;;;23.50;99.90;;;;;;5077170;28;20433;-73
2022/09/11 11:25:03;;;;;;;6.05;2.72;;;23.80;99.90;;;;;;5090222;28;20394;-73
2022/09/11 11:27:35;;;;;;;5.35;2.40;;;23.90;99.90;;;;;;5087847;28;20417;-73
2022/09/11 11:30:18;;;;;;;4.27;2.40;;;24.00;99.90;;;;;;5090548;28;20410;-73
2022/09/11 11:33:05;;;;;;;5.05;2.20;;;24.20;99.90;;;;;;5088266;28;20578;-73
2022/09/11 11:35:59;;;;;;;4.23;2.03;;;24.60;99.90;;;;;;5073640;28;20410;-73
2022/09/11 11:38:42;;;;;;;4.55;1.80;;;24.60;99.90;;;;;;5090218;28;20424;-73
2022/09/11 11:41:19;;;;;;;4.47;1.90;;;24.40;99.90;;;;;;5089003;28;20421;-73
2022/09/11 11:43:47;;;;;;;5.00;1.90;;;24.40;99.90;;;;;;5070485;28;20508;-74
2022/09/11 11:46:19;;;;;;;6.00;2.70;;;24.30;99.90;;;;;;5085757;28;20509;-74
2022/09/11 11:49:00;;;;;;;5.40;2.50;;;24.60;99.90;;;;;;5090028;28;20425;-73
2022/09/11 11:51:30;;;;;;;4.83;2.40;;;24.20;99.90;;;;;;5088422;28;20398;-73
2022/09/11 11:54:16;;;;;;;4.45;2.40;;;24.40;99.90;;;;;;5086633;28;20404;-73
2022/09/11 11:56:56;;;;;;;4.05;2.15;;;24.20;99.90;;;;;;5085086;28;20493;-74
2022/09/11 11:59:57;;;;;;;5.10;2.15;;;23.90;99.90;;;;;;5053230;28;20394;-73
2022/09/11 12:02:42;;;;;;;7.03;2.20;;;23.30;99.90;;;;;;5060042;28;20426;-73
2022/09/11 12:05:16;;;;;;;6.03;2.20;;;23.20;99.90;;;;;;5090024;28;20916;-73
2022/09/11 12:07:46;;;;;;;3.97;2.10;;;22.70;99.90;;;;;;5076061;28;20415;-74
2022/09/11 12:10:28;;;;;;;3.85;2.13;;;22.50;99.90;;;;;;5072169;28;20423;-74
2022/09/11 12:13:02;;;;;;;5.17;2.70;;;23.00;99.90;;;;;;5074078;28;20438;-74
2022/09/11 12:15:31;;;;;;;3.92;2.50;;;22.60;99.90;;;;;;5074004;28;20403;-74
2022/09/11 12:18:14;;;;;;;6.30;2.60;;;22.60;99.90;;;;;;5074947;28;20395;-73
2022/09/11 12:20:44;;;;;;;3.85;2.70;;;22.60;99.90;;;;;;5073548;28;20454;-74
2022/09/11 12:23:29;;;;;;;5.57;2.50;;;22.50;99.90;;;;;;5074179;28;20514;-74
2022/09/11 12:26:18;;;;;;;3.95;2.25;;;22.30;99.90;;;;;;5057526;28;20467;-73
2022/09/11 12:28:45;;;;;;;4.47;2.20;;;22.50;99.90;;;;;;5072977;28;20428;-74
2022/09/11 12:31:13;;;;;;;3.45;2.42;;;22.60;99.90;;;;;;5060612;28;20772;-73
2022/09/11 12:33:42;;;;;;;4.47;2.40;;;22.10;99.90;;;;;;5076134;28;21174;-73
2022/09/11 12:36:18;;;;;;;5.22;2.53;;;22.30;99.90;;;;;;5073741;28;20430;-75
2022/09/11 12:39:16;;;;;;;5.28;2.20;;;22.50;99.90;;;;;;5074760;28;20491;-74
2022/09/11 12:41:41;;;;;;;3.85;2.33;;;22.30;99.90;;;;;;5072012;28;20465;-74
2022/09/11 12:44:29;;;;;;;3.72;2.30;;;22.70;99.90;;;;;;5083278;28;20438;-74
2022/09/11 12:46:58;;;;;;;4.45;2.20;;;23.00;99.90;;;;;;5058402;28;20452;-74
2022/09/11 12:49:26;;;;;;;4.32;2.30;;;22.60;99.90;;;;;;5075094;28;20421;-74
2022/09/11 12:52:00;;;;;;;3.95;1.88;;;22.90;99.90;;;;;;5085533;28;20423;-74
2022/09/11 12:54:39;;;;;;;3.27;2.10;;;23.50;99.90;;;;;;5061880;28;20412;-74
2022/09/11 12:57:13;;;;;;;4.55;2.33;;;23.80;99.90;;;;;;5077437;28;20458;-74
2022/09/11 12:59:42;;;;;;;3.72;2.22;;;24.20;99.90;;;;;;5081342;28;20432;-74
2022/09/11 13:02:26;;;;;;;4.47;2.30;;;24.30;99.90;;;;;;5083026;28;20470;-74
2022/09/11 13:04:53;;;;;;;6.13;2.00;;;24.30;99.90;;;;;;5074027;28;20424;-75
2022/09/11 13:07:34;;;;;;;7.15;1.98;;;24.60;99.90;;;;;;5058639;28;20508;-74
2022/09/11 13:10:07;;;;;;;4.13;1.90;;;25.20;99.90;;;;;;5076528;28;20489;-74
2022/09/11 13:12:51;;;;;;;4.60;1.70;;;25.60;99.90;;;;;;5073355;28;20430;-74
2022/09/11 13:15:39;;;;;;;4.13;1.77;;;25.60;99.90;;;;;;5074266;28;20522;-74
2022/09/11 13:18:22;;;;;;;4.78;2.17;;;25.60;99.90;;;;;;5081336;28;20522;-75
2022/09/11 13:21:12;;;;;;;4.07;1.85;;;25.30;99.90;;;;;;5075989;28;20439;-74
2022/09/11 13:23:38;;;;;;;4.47;1.97;;;25.50;99.90;;;;;;5063928;28;20432;-74
2022/09/11 13:26:06;;;;;;;4.95;1.90;;;25.00;99.90;;;;;;5066517;28;20446;-74
2022/09/11 13:28:49;;;;;;;3.88;1.83;;;25.30;99.90;;;;;;5082915;28;20445;-74
2022/09/11 13:31:28;;;;;;;3.60;2.10;;;25.40;99.90;;;;;;5059381;28;20427;-74
2022/09/11 13:33:54;;;;;;;3.85;1.67;;;25.50;99.90;;;;;;5077031;28;20469;-74
2022/09/11 13:36:23;;;;;;;4.18;1.80;;;25.30;99.90;;;;;;5086840;28;20932;-74